sensor_id;sensor_type;location;lat;lon;timestamp;P1;durP1;ratioP1;P2;durP2;ratioP2
823;SDS011;373;49.342;8.146;2023-02-01T00:01:31;3.60;;;3.25;;
823;SDS011;373;49.342;8.146;2023-02-01T00:03:58;4.25;;;2.90;;
823;SDS011;373;49.342;8.146;2023-02-01T00:06:25;3.55;;;2.85;;
823;SDS011;373;49.342;8.146;2023-02-01T00:08:52;2.63;;;2.30;;
823;SDS011;373;49.342;8.146;2023-02-01T00:11:20;2.40;;;2.20;;
823;SDS011;373;49.342;8.146;2023-02-01T00:13:48;3.40;;;2.50;;
823;SDS011;373;49.342;8.146;2023-02-01T00:16:18;2.80;;;2.60;;
823;SDS011;373;49.342;8.146;2023-02-01T00:18:47;2.45;;;2.13;;
823;SDS011;373;49.342;8.146;2023-02-01T00:21:15;2.67;;;2.45;;
823;SDS011;373;49.342;8.146;2023-02-01T00:23:44;2.90;;;2.60;;
823;SDS011;373;49.342;8.146;2023-02-01T00:26:13;3.00;;;2.53;;
823;SDS011;373;49.342;8.146;2023-02-01T00:28:43;3.60;;;2.72;;
823;SDS011;373;49.342;8.146;2023-02-01T00:31:10;3.38;;;2.50;;
823;SDS011;373;49.342;8.146;2023-02-01T00:33:38;4.13;;;3.05;;
823;SDS011;373;49.342;8.146;2023-02-01T00:36:06;3.88;;;2.53;;
823;SDS011;373;49.342;8.146;2023-02-01T00:38:36;3.33;;;2.70;;
823;SDS011;373;49.342;8.146;2023-02-01T00:41:05;2.53;;;2.33;;
823;SDS011;373;49.342;8.146;2023-02-01T00:43:33;3.42;;;2.67;;
823;SDS011;373;49.342;8.146;2023-02-01T00:46:01;3.80;;;2.90;;
823;SDS011;373;49.342;8.146;2023-02-01T00:48:29;3.35;;;2.22;;
823;SDS011;373;49.342;8.146;2023-02-01T00:51:00;3.08;;;2.75;;
823;SDS011;373;49.342;8.146;2023-02-01T00:53:27;3.38;;;3.03;;
823;SDS011;373;49.342;8.146;2023-02-01T00:55:55;3.20;;;2.90;;
823;SDS011;373;49.342;8.146;2023-02-01T00:58:22;2.92;;;2.72;;
823;SDS011;373;49.342;8.146;2023-02-01T01:01:00;4.03;;;3.72;;
823;SDS011;373;49.342;8.146;2023-02-01T01:03:28;4.10;;;3.30;;
823;SDS011;373;49.342;8.146;2023-02-01T01:06:00;3.38;;;3.08;;
823;SDS011;373;49.342;8.146;2023-02-01T01:08:29;3.90;;;3.60;;
823;SDS011;373;49.342;8.146;2023-02-01T01:10:56;3.92;;;3.10;;
823;SDS011;373;49.342;8.146;2023-02-01T01:13:24;3.80;;;3.30;;
823;SDS011;373;49.342;8.146;2023-02-01T01:15:51;3.60;;;3.22;;
823;SDS011;373;49.342;8.146;2023-02-01T01:18:18;4.53;;;3.97;;
823;SDS011;373;49.342;8.146;2023-02-01T01:20:45;3.92;;;3.63;;
823;SDS011;373;49.342;8.146;2023-02-01T01:23:15;4.38;;;3.20;;
823;SDS011;373;49.342;8.146;2023-02-01T01:25:42;3.88;;;3.58;;
823;SDS011;373;49.342;8.146;2023-02-01T01:28:09;5.75;;;3.97;;
823;SDS011;373;49.342;8.146;2023-02-01T01:30:36;3.83;;;3.33;;
823;SDS011;373;49.342;8.146;2023-02-01T01:33:03;3.38;;;2.78;;
823;SDS011;373;49.342;8.146;2023-02-01T01:35:31;4.75;;;3.70;;
823;SDS011;373;49.342;8.146;2023-02-01T01:37:59;3.50;;;2.97;;
823;SDS011;373;49.342;8.146;2023-02-01T01:40:28;3.25;;;2.70;;
823;SDS011;373;49.342;8.146;2023-02-01T01:42:56;3.72;;;3.30;;
823;SDS011;373;49.342;8.146;2023-02-01T01:45:26;4.47;;;3.20;;
823;SDS011;373;49.342;8.146;2023-02-01T01:47:56;4.05;;;3.50;;
823;SDS011;373;49.342;8.146;2023-02-01T01:50:24;3.60;;;2.97;;
823;SDS011;373;49.342;8.146;2023-02-01T01:52:56;3.83;;;3.42;;
823;SDS011;373;49.342;8.146;2023-02-01T01:55:28;3.72;;;2.97;;
823;SDS011;373;49.342;8.146;2023-02-01T01:57:59;3.42;;;3.13;;
823;SDS011;373;49.342;8.146;2023-02-01T02:00:31;3.20;;;2.95;;
823;SDS011;373;49.342;8.146;2023-02-01T02:03:00;4.30;;;3.90;;
823;SDS011;373;49.342;8.146;2023-02-01T02:05:32;3.70;;;3.40;;
823;SDS011;373;49.342;8.146;2023-02-01T02:07:59;4.28;;;3.10;;
823;SDS011;373;49.342;8.146;2023-02-01T02:10:28;3.88;;;3.58;;
823;SDS011;373;49.342;8.146;2023-02-01T02:13:16;5.15;;;3.75;;
823;SDS011;373;49.342;8.146;2023-02-01T02:15:45;5.72;;;4.97;;
823;SDS011;373;49.342;8.146;2023-02-01T02:18:23;4.88;;;4.10;;
823;SDS011;373;49.342;8.146;2023-02-01T02:27:15;5.05;;;3.85;;
823;SDS011;373;49.342;8.146;2023-02-01T02:36:17;4.95;;;3.78;;
823;SDS011;373;49.342;8.146;2023-02-01T02:38:58;3.70;;;3.30;;
823;SDS011;373;49.342;8.146;2023-02-01T02:41:33;3.45;;;2.97;;
823;SDS011;373;49.342;8.146;2023-02-01T02:44:28;2.78;;;2.58;;
823;SDS011;373;49.342;8.146;2023-02-01T02:47:20;3.15;;;2.78;;
823;SDS011;373;49.342;8.146;2023-02-01T02:49:58;2.50;;;2.30;;
823;SDS011;373;49.342;8.146;2023-02-01T02:53:02;4.22;;;2.80;;
823;SDS011;373;49.342;8.146;2023-02-01T02:55:51;3.63;;;2.83;;
823;SDS011;373;49.342;8.146;2023-02-01T02:58:37;3.90;;;3.60;;
823;SDS011;373;49.342;8.146;2023-02-01T03:01:21;3.70;;;2.92;;
823;SDS011;373;49.342;8.146;2023-02-01T03:04:06;6.55;;;3.38;;
823;SDS011;373;49.342;8.146;2023-02-01T03:06:37;4.25;;;3.60;;
823;SDS011;373;49.342;8.146;2023-02-01T03:09:08;3.63;;;3.30;;
823;SDS011;373;49.342;8.146;2023-02-01T03:11:40;5.28;;;4.10;;
823;SDS011;373;49.342;8.146;2023-02-01T03:14:43;4.70;;;3.28;;
823;SDS011;373;49.342;8.146;2023-02-01T03:17:13;5.57;;;3.75;;
823;SDS011;373;49.342;8.146;2023-02-01T03:19:45;4.35;;;3.42;;
823;SDS011;373;49.342;8.146;2023-02-01T03:22:15;3.55;;;2.97;;
823;SDS011;373;49.342;8.146;2023-02-01T03:24:48;4.28;;;3.42;;
823;SDS011;373;49.342;8.146;2023-02-01T03:27:20;5.18;;;3.70;;
823;SDS011;373;49.342;8.146;2023-02-01T03:29:53;5.82;;;3.17;;
823;SDS011;373;49.342;8.146;2023-02-01T03:32:22;4.50;;;3.45;;
823;SDS011;373;49.342;8.146;2023-02-01T03:34:49;4.07;;;3.03;;
823;SDS011;373;49.342;8.146;2023-02-01T03:37:20;3.42;;;3.10;;
823;SDS011;373;49.342;8.146;2023-02-01T03:39:53;4.82;;;3.45;;
823;SDS011;373;49.342;8.146;2023-02-01T03:42:26;5.10;;;3.58;;
823;SDS011;373;49.342;8.146;2023-02-01T03:44:58;4.80;;;3.63;;
823;SDS011;373;49.342;8.146;2023-02-01T03:47:30;4.07;;;3.35;;
823;SDS011;373;49.342;8.146;2023-02-01T03:50:03;5.32;;;4.40;;
823;SDS011;373;49.342;8.146;2023-02-01T03:52:33;6.45;;;4.00;;
823;SDS011;373;49.342;8.146;2023-02-01T03:55:09;5.22;;;3.90;;
823;SDS011;373;49.342;8.146;2023-02-01T03:57:41;3.92;;;2.97;;
823;SDS011;373;49.342;8.146;2023-02-01T04:00:15;4.45;;;2.97;;
823;SDS011;373;49.342;8.146;2023-02-01T04:02:45;3.95;;;2.60;;
823;SDS011;373;49.342;8.146;2023-02-01T04:05:12;3.03;;;2.30;;
823;SDS011;373;49.342;8.146;2023-02-01T04:07:46;1.95;;;1.85;;
823;SDS011;373;49.342;8.146;2023-02-01T04:10:15;3.63;;;2.38;;
823;SDS011;373;49.342;8.146;2023-02-01T04:12:42;3.95;;;2.63;;
823;SDS011;373;49.342;8.146;2023-02-01T04:15:09;2.53;;;2.28;;
823;SDS011;373;49.342;8.146;2023-02-01T04:17:37;4.90;;;3.20;;
823;SDS011;373;49.342;8.146;2023-02-01T04:20:04;3.33;;;2.60;;
823;SDS011;373;49.342;8.146;2023-02-01T04:22:31;4.40;;;3.20;;
823;SDS011;373;49.342;8.146;2023-02-01T04:24:58;4.38;;;2.90;;
823;SDS011;373;49.342;8.146;2023-02-01T04:27:27;5.60;;;3.13;;
823;SDS011;373;49.342;8.146;2023-02-01T04:29:54;3.88;;;3.53;;
823;SDS011;373;49.342;8.146;2023-02-01T04:32:21;3.58;;;2.92;;
823;SDS011;373;49.342;8.146;2023-02-01T04:34:48;3.67;;;3.05;;
823;SDS011;373;49.342;8.146;2023-02-01T04:37:16;2.78;;;2.58;;
823;SDS011;373;49.342;8.146;2023-02-01T04:39:43;3.80;;;2.90;;
823;SDS011;373;49.342;8.146;2023-02-01T04:42:10;2.45;;;2.00;;
823;SDS011;373;49.342;8.146;2023-02-01T04:44:38;2.58;;;2.25;;
823;SDS011;373;49.342;8.146;2023-02-01T04:47:07;2.20;;;2.00;;
823;SDS011;373;49.342;8.146;2023-02-01T04:49:34;2.85;;;2.17;;
823;SDS011;373;49.342;8.146;2023-02-01T04:52:01;3.58;;;2.15;;
823;SDS011;373;49.342;8.146;2023-02-01T04:54:30;3.33;;;2.10;;
823;SDS011;373;49.342;8.146;2023-02-01T04:56:57;3.40;;;2.10;;
823;SDS011;373;49.342;8.146;2023-02-01T04:59:24;3.45;;;1.77;;
823;SDS011;373;49.342;8.146;2023-02-01T05:01:53;3.42;;;2.10;;
823;SDS011;373;49.342;8.146;2023-02-01T05:04:20;2.83;;;2.33;;
823;SDS011;373;49.342;8.146;2023-02-01T05:06:47;3.63;;;2.60;;
823;SDS011;373;49.342;8.146;2023-02-01T05:09:15;4.03;;;3.05;;
823;SDS011;373;49.342;8.146;2023-02-01T05:11:42;3.53;;;3.17;;
823;SDS011;373;49.342;8.146;2023-02-01T05:14:26;3.30;;;3.00;;
823;SDS011;373;49.342;8.146;2023-02-01T05:16:54;5.25;;;3.30;;
823;SDS011;373;49.342;8.146;2023-02-01T05:19:22;5.22;;;3.53;;
823;SDS011;373;49.342;8.146;2023-02-01T05:21:49;3.45;;;2.80;;
823;SDS011;373;49.342;8.146;2023-02-01T05:24:16;3.47;;;2.63;;
823;SDS011;373;49.342;8.146;2023-02-01T05:26:45;4.50;;;3.08;;
823;SDS011;373;49.342;8.146;2023-02-01T05:29:13;2.28;;;2.08;;
823;SDS011;373;49.342;8.146;2023-02-01T05:31:40;2.42;;;1.95;;
823;SDS011;373;49.342;8.146;2023-02-01T05:34:09;3.30;;;1.50;;
823;SDS011;373;49.342;8.146;2023-02-01T05:36:36;2.83;;;1.80;;
823;SDS011;373;49.342;8.146;2023-02-01T05:39:03;2.10;;;1.90;;
823;SDS011;373;49.342;8.146;2023-02-01T05:41:30;3.00;;;2.28;;
823;SDS011;373;49.342;8.146;2023-02-01T05:43:57;2.65;;;2.33;;
823;SDS011;373;49.342;8.146;2023-02-01T05:46:24;4.00;;;3.20;;
823;SDS011;373;49.342;8.146;2023-02-01T05:48:51;4.25;;;3.05;;
823;SDS011;373;49.342;8.146;2023-02-01T05:51:20;5.88;;;3.70;;
823;SDS011;373;49.342;8.146;2023-02-01T05:53:47;6.88;;;4.90;;
823;SDS011;373;49.342;8.146;2023-02-01T05:56:14;4.40;;;3.83;;
823;SDS011;373;49.342;8.146;2023-02-01T05:58:41;5.82;;;3.80;;
823;SDS011;373;49.342;8.146;2023-02-01T06:01:08;4.18;;;3.65;;
823;SDS011;373;49.342;8.146;2023-02-01T06:03:35;7.15;;;4.32;;
823;SDS011;373;49.342;8.146;2023-02-01T06:06:02;4.72;;;3.50;;
823;SDS011;373;49.342;8.146;2023-02-01T06:08:34;8.18;;;3.53;;
823;SDS011;373;49.342;8.146;2023-02-01T06:11:02;5.95;;;4.30;;
823;SDS011;373;49.342;8.146;2023-02-01T06:13:30;4.47;;;3.17;;
823;SDS011;373;49.342;8.146;2023-02-01T06:15:58;4.57;;;2.95;;
823;SDS011;373;49.342;8.146;2023-02-01T06:18:25;5.90;;;3.70;;
823;SDS011;373;49.342;8.146;2023-02-01T06:20:53;4.13;;;3.35;;
823;SDS011;373;49.342;8.146;2023-02-01T06:23:20;5.45;;;3.65;;
823;SDS011;373;49.342;8.146;2023-02-01T06:25:51;4.43;;;3.70;;
823;SDS011;373;49.342;8.146;2023-02-01T06:28:18;5.53;;;3.78;;
823;SDS011;373;49.342;8.146;2023-02-01T06:30:45;4.30;;;3.42;;
823;SDS011;373;49.342;8.146;2023-02-01T06:33:13;5.95;;;3.03;;
823;SDS011;373;49.342;8.146;2023-02-01T06:35:41;6.95;;;2.97;;
823;SDS011;373;49.342;8.146;2023-02-01T06:38:09;4.20;;;2.67;;
823;SDS011;373;49.342;8.146;2023-02-01T06:40:37;5.47;;;3.17;;
823;SDS011;373;49.342;8.146;2023-02-01T06:43:05;6.47;;;2.97;;
823;SDS011;373;49.342;8.146;2023-02-01T06:45:32;4.38;;;2.67;;
823;SDS011;373;49.342;8.146;2023-02-01T06:47:59;4.35;;;2.70;;
823;SDS011;373;49.342;8.146;2023-02-01T06:50:27;4.13;;;2.15;;
823;SDS011;373;49.342;8.146;2023-02-01T06:52:54;6.55;;;2.80;;
823;SDS011;373;49.342;8.146;2023-02-01T06:55:21;5.20;;;2.80;;
823;SDS011;373;49.342;8.146;2023-02-01T06:57:52;8.15;;;3.38;;
823;SDS011;373;49.342;8.146;2023-02-01T07:00:22;9.25;;;3.13;;
823;SDS011;373;49.342;8.146;2023-02-01T07:02:50;6.85;;;3.20;;
823;SDS011;373;49.342;8.146;2023-02-01T07:05:17;6.78;;;3.70;;
823;SDS011;373;49.342;8.146;2023-02-01T07:07:44;8.18;;;3.85;;
823;SDS011;373;49.342;8.146;2023-02-01T07:10:11;7.72;;;3.50;;
823;SDS011;373;49.342;8.146;2023-02-01T07:12:39;5.45;;;3.60;;
823;SDS011;373;49.342;8.146;2023-02-01T07:15:06;13.82;;;4.85;;
823;SDS011;373;49.342;8.146;2023-02-01T07:17:35;10.15;;;3.80;;
823;SDS011;373;49.342;8.146;2023-02-01T07:20:03;9.32;;;4.75;;
823;SDS011;373;49.342;8.146;2023-02-01T07:22:30;7.68;;;3.95;;
823;SDS011;373;49.342;8.146;2023-02-01T07:24:57;7.20;;;3.67;;
823;SDS011;373;49.342;8.146;2023-02-01T07:27:24;6.35;;;3.88;;
823;SDS011;373;49.342;8.146;2023-02-01T07:29:51;7.10;;;4.18;;
823;SDS011;373;49.342;8.146;2023-02-01T07:32:20;7.65;;;4.43;;
823;SDS011;373;49.342;8.146;2023-02-01T07:34:49;7.07;;;4.75;;
823;SDS011;373;49.342;8.146;2023-02-01T07:37:16;5.15;;;4.65;;
823;SDS011;373;49.342;8.146;2023-02-01T07:39:43;9.70;;;4.40;;
823;SDS011;373;49.342;8.146;2023-02-01T07:42:10;9.23;;;4.45;;
823;SDS011;373;49.342;8.146;2023-02-01T07:44:37;9.20;;;4.90;;
823;SDS011;373;49.342;8.146;2023-02-01T07:47:05;9.15;;;4.60;;
823;SDS011;373;49.342;8.146;2023-02-01T07:49:32;8.98;;;4.38;;
823;SDS011;373;49.342;8.146;2023-02-01T07:52:00;8.52;;;4.75;;
823;SDS011;373;49.342;8.146;2023-02-01T07:54:27;7.50;;;4.78;;
823;SDS011;373;49.342;8.146;2023-02-01T07:56:54;8.50;;;4.55;;
823;SDS011;373;49.342;8.146;2023-02-01T07:59:22;9.60;;;3.90;;
823;SDS011;373;49.342;8.146;2023-02-01T08:01:49;10.82;;;5.13;;
823;SDS011;373;49.342;8.146;2023-02-01T08:04:15;12.73;;;5.30;;
823;SDS011;373;49.342;8.146;2023-02-01T08:06:42;8.85;;;4.57;;
823;SDS011;373;49.342;8.146;2023-02-01T08:09:10;7.07;;;4.32;;
823;SDS011;373;49.342;8.146;2023-02-01T08:11:37;16.40;;;5.53;;
823;SDS011;373;49.342;8.146;2023-02-01T08:14:04;9.98;;;5.63;;
823;SDS011;373;49.342;8.146;2023-02-01T08:16:32;10.43;;;5.38;;
823;SDS011;373;49.342;8.146;2023-02-01T08:19:02;13.68;;;5.00;;
823;SDS011;373;49.342;8.146;2023-02-01T08:21:29;12.32;;;4.57;;
823;SDS011;373;49.342;8.146;2023-02-01T08:24:02;12.43;;;4.55;;
823;SDS011;373;49.342;8.146;2023-02-01T08:26:31;10.00;;;4.55;;
823;SDS011;373;49.342;8.146;2023-02-01T08:28:59;8.75;;;4.65;;
823;SDS011;373;49.342;8.146;2023-02-01T08:31:28;8.02;;;4.35;;
823;SDS011;373;49.342;8.146;2023-02-01T08:33:57;8.10;;;3.85;;
823;SDS011;373;49.342;8.146;2023-02-01T08:36:26;8.43;;;5.15;;
823;SDS011;373;49.342;8.146;2023-02-01T08:38:54;10.75;;;4.63;;
823;SDS011;373;49.342;8.146;2023-02-01T08:41:22;6.22;;;4.05;;
823;SDS011;373;49.342;8.146;2023-02-01T08:43:52;9.52;;;5.03;;
823;SDS011;373;49.342;8.146;2023-02-01T08:46:19;12.52;;;4.65;;
823;SDS011;373;49.342;8.146;2023-02-01T08:48:47;9.60;;;4.70;;
823;SDS011;373;49.342;8.146;2023-02-01T08:51:16;8.07;;;3.90;;
823;SDS011;373;49.342;8.146;2023-02-01T08:53:45;8.88;;;3.50;;
823;SDS011;373;49.342;8.146;2023-02-01T08:56:13;12.85;;;5.35;;
823;SDS011;373;49.342;8.146;2023-02-01T08:58:42;14.02;;;4.57;;
823;SDS011;373;49.342;8.146;2023-02-01T09:01:12;8.57;;;3.13;;
823;SDS011;373;49.342;8.146;2023-02-01T09:03:42;8.45;;;3.83;;
823;SDS011;373;49.342;8.146;2023-02-01T09:06:10;10.27;;;3.75;;
823;SDS011;373;49.342;8.146;2023-02-01T09:08:39;8.48;;;4.00;;
823;SDS011;373;49.342;8.146;2023-02-01T09:11:07;11.25;;;3.80;;
823;SDS011;373;49.342;8.146;2023-02-01T09:13:36;10.60;;;3.95;;
823;SDS011;373;49.342;8.146;2023-02-01T09:16:04;6.25;;;3.13;;
823;SDS011;373;49.342;8.146;2023-02-01T09:18:33;11.10;;;3.70;;
823;SDS011;373;49.342;8.146;2023-02-01T09:21:03;8.55;;;3.70;;
823;SDS011;373;49.342;8.146;2023-02-01T09:23:30;10.50;;;3.40;;
823;SDS011;373;49.342;8.146;2023-02-01T09:25:58;9.82;;;3.30;;
823;SDS011;373;49.342;8.146;2023-02-01T09:28:26;10.00;;;3.90;;
823;SDS011;373;49.342;8.146;2023-02-01T09:30:54;7.68;;;2.97;;
823;SDS011;373;49.342;8.146;2023-02-01T09:33:22;10.38;;;3.40;;
823;SDS011;373;49.342;8.146;2023-02-01T09:35:55;9.50;;;3.25;;
823;SDS011;373;49.342;8.146;2023-02-01T09:38:23;7.22;;;2.75;;
823;SDS011;373;49.342;8.146;2023-02-01T09:40:52;8.02;;;3.40;;
823;SDS011;373;49.342;8.146;2023-02-01T09:43:22;9.90;;;3.42;;
823;SDS011;373;49.342;8.146;2023-02-01T09:46:08;9.90;;;3.50;;
823;SDS011;373;49.342;8.146;2023-02-01T09:48:46;10.40;;;3.35;;
823;SDS011;373;49.342;8.146;2023-02-01T09:51:18;7.65;;;3.00;;
823;SDS011;373;49.342;8.146;2023-02-01T09:53:52;7.75;;;2.83;;
823;SDS011;373;49.342;8.146;2023-02-01T09:56:27;7.45;;;3.00;;
823;SDS011;373;49.342;8.146;2023-02-01T09:59:01;7.53;;;3.22;;
823;SDS011;373;49.342;8.146;2023-02-01T10:01:48;13.07;;;3.00;;
823;SDS011;373;49.342;8.146;2023-02-01T10:04:15;9.75;;;3.05;;
823;SDS011;373;49.342;8.146;2023-02-01T10:06:48;10.77;;;4.43;;
823;SDS011;373;49.342;8.146;2023-02-01T10:09:29;10.50;;;3.42;;
823;SDS011;373;49.342;8.146;2023-02-01T10:15:19;6.63;;;2.30;;
823;SDS011;373;49.342;8.146;2023-02-01T10:20:52;11.20;;;2.80;;
823;SDS011;373;49.342;8.146;2023-02-01T10:23:32;7.68;;;2.75;;
823;SDS011;373;49.342;8.146;2023-02-01T10:26:12;12.27;;;3.80;;
823;SDS011;373;49.342;8.146;2023-02-01T10:28:45;11.40;;;3.25;;
823;SDS011;373;49.342;8.146;2023-02-01T10:31:15;10.18;;;3.05;;
823;SDS011;373;49.342;8.146;2023-02-01T10:33:44;7.43;;;3.20;;
823;SDS011;373;49.342;8.146;2023-02-01T10:36:13;7.22;;;3.15;;
823;SDS011;373;49.342;8.146;2023-02-01T10:38:47;8.90;;;3.35;;
823;SDS011;373;49.342;8.146;2023-02-01T10:41:15;10.73;;;2.95;;
823;SDS011;373;49.342;8.146;2023-02-01T10:43:44;12.77;;;3.28;;
823;SDS011;373;49.342;8.146;2023-02-01T10:46:16;8.30;;;2.95;;
823;SDS011;373;49.342;8.146;2023-02-01T10:48:43;14.40;;;3.33;;
823;SDS011;373;49.342;8.146;2023-02-01T10:51:12;11.55;;;3.42;;
823;SDS011;373;49.342;8.146;2023-02-01T10:53:44;10.15;;;3.65;;
823;SDS011;373;49.342;8.146;2023-02-01T10:56:21;10.38;;;3.15;;
823;SDS011;373;49.342;8.146;2023-02-01T10:58:50;9.95;;;3.67;;
823;SDS011;373;49.342;8.146;2023-02-01T11:01:19;11.98;;;3.63;;
823;SDS011;373;49.342;8.146;2023-02-01T11:03:52;10.65;;;3.20;;
823;SDS011;373;49.342;8.146;2023-02-01T11:06:26;10.63;;;2.85;;
823;SDS011;373;49.342;8.146;2023-02-01T11:08:56;11.20;;;3.55;;
823;SDS011;373;49.342;8.146;2023-02-01T11:11:25;9.68;;;2.90;;
823;SDS011;373;49.342;8.146;2023-02-01T11:13:55;9.68;;;2.83;;
823;SDS011;373;49.342;8.146;2023-02-01T11:16:32;10.77;;;2.95;;
823;SDS011;373;49.342;8.146;2023-02-01T11:19:02;7.20;;;3.00;;
823;SDS011;373;49.342;8.146;2023-02-01T11:21:29;6.60;;;2.33;;
823;SDS011;373;49.342;8.146;2023-02-01T11:24:01;14.30;;;3.50;;
823;SDS011;373;49.342;8.146;2023-02-01T11:26:30;10.23;;;3.47;;
823;SDS011;373;49.342;8.146;2023-02-01T11:28:59;6.55;;;3.20;;
823;SDS011;373;49.342;8.146;2023-02-01T11:31:29;7.75;;;3.75;;
823;SDS011;373;49.342;8.146;2023-02-01T11:33:58;11.73;;;2.85;;
823;SDS011;373;49.342;8.146;2023-02-01T11:36:31;13.48;;;3.63;;
823;SDS011;373;49.342;8.146;2023-02-01T11:41:56;10.35;;;2.83;;
823;SDS011;373;49.342;8.146;2023-02-01T11:44:29;8.20;;;2.92;;
823;SDS011;373;49.342;8.146;2023-02-01T11:47:16;7.80;;;3.45;;
823;SDS011;373;49.342;8.146;2023-02-01T11:49:46;7.95;;;2.55;;
823;SDS011;373;49.342;8.146;2023-02-01T11:52:15;10.00;;;2.90;;
823;SDS011;373;49.342;8.146;2023-02-01T11:57:54;7.07;;;2.90;;
823;SDS011;373;49.342;8.146;2023-02-01T12:00:33;7.05;;;2.70;;
823;SDS011;373;49.342;8.146;2023-02-01T12:03:17;7.80;;;2.95;;
823;SDS011;373;49.342;8.146;2023-02-01T12:06:05;11.05;;;3.70;;
823;SDS011;373;49.342;8.146;2023-02-01T12:08:44;7.93;;;2.92;;
823;SDS011;373;49.342;8.146;2023-02-01T12:11:28;10.23;;;3.78;;
823;SDS011;373;49.342;8.146;2023-02-01T12:14:08;6.57;;;2.88;;
823;SDS011;373;49.342;8.146;2023-02-01T12:16:52;8.48;;;3.08;;
823;SDS011;373;49.342;8.146;2023-02-01T12:19:34;7.95;;;3.17;;
823;SDS011;373;49.342;8.146;2023-02-01T12:22:14;9.43;;;3.10;;
823;SDS011;373;49.342;8.146;2023-02-01T12:24:57;10.38;;;3.53;;
823;SDS011;373;49.342;8.146;2023-02-01T12:28:01;7.90;;;3.08;;
823;SDS011;373;49.342;8.146;2023-02-01T12:30:51;11.95;;;3.28;;
823;SDS011;373;49.342;8.146;2023-02-01T12:33:38;11.40;;;2.88;;
823;SDS011;373;49.342;8.146;2023-02-01T12:36:23;7.38;;;3.25;;
823;SDS011;373;49.342;8.146;2023-02-01T12:38:58;9.40;;;3.20;;
823;SDS011;373;49.342;8.146;2023-02-01T12:41:40;8.02;;;2.80;;
823;SDS011;373;49.342;8.146;2023-02-01T12:44:17;7.18;;;2.45;;
823;SDS011;373;49.342;8.146;2023-02-01T12:46:54;7.60;;;2.53;;
823;SDS011;373;49.342;8.146;2023-02-01T12:49:27;10.40;;;3.10;;
823;SDS011;373;49.342;8.146;2023-02-01T12:52:00;9.07;;;2.92;;
823;SDS011;373;49.342;8.146;2023-02-01T12:54:33;9.07;;;3.55;;
823;SDS011;373;49.342;8.146;2023-02-01T12:57:08;11.18;;;3.03;;
823;SDS011;373;49.342;8.146;2023-02-01T12:59:40;11.05;;;3.13;;
823;SDS011;373;49.342;8.146;2023-02-01T13:02:14;11.02;;;2.97;;
823;SDS011;373;49.342;8.146;2023-02-01T13:04:51;10.15;;;3.17;;
823;SDS011;373;49.342;8.146;2023-02-01T13:07:28;5.57;;;2.10;;
823;SDS011;373;49.342;8.146;2023-02-01T13:10:01;5.68;;;2.88;;
823;SDS011;373;49.342;8.146;2023-02-01T13:12:36;7.38;;;2.38;;
823;SDS011;373;49.342;8.146;2023-02-01T13:15:09;5.65;;;2.47;;
823;SDS011;373;49.342;8.146;2023-02-01T13:17:43;7.45;;;2.65;;
823;SDS011;373;49.342;8.146;2023-02-01T13:20:16;7.25;;;2.22;;
823;SDS011;373;49.342;8.146;2023-02-01T13:22:47;7.95;;;2.83;;
823;SDS011;373;49.342;8.146;2023-02-01T13:25:19;10.13;;;3.35;;
823;SDS011;373;49.342;8.146;2023-02-01T13:27:55;13.02;;;2.70;;
823;SDS011;373;49.342;8.146;2023-02-01T13:30:28;8.05;;;2.60;;
823;SDS011;373;49.342;8.146;2023-02-01T13:33:14;8.90;;;2.70;;
823;SDS011;373;49.342;8.146;2023-02-01T13:35:58;8.52;;;3.00;;
823;SDS011;373;49.342;8.146;2023-02-01T13:38:45;5.80;;;2.67;;
823;SDS011;373;49.342;8.146;2023-02-01T13:41:41;7.20;;;2.53;;
823;SDS011;373;49.342;8.146;2023-02-01T13:44:19;10.95;;;2.95;;
823;SDS011;373;49.342;8.146;2023-02-01T13:46:53;6.30;;;2.70;;
823;SDS011;373;49.342;8.146;2023-02-01T13:49:26;7.95;;;2.80;;
823;SDS011;373;49.342;8.146;2023-02-01T13:51:56;4.95;;;2.60;;
823;SDS011;373;49.342;8.146;2023-02-01T13:54:26;10.88;;;3.13;;
823;SDS011;373;49.342;8.146;2023-02-01T13:56:56;6.05;;;2.78;;
823;SDS011;373;49.342;8.146;2023-02-01T14:05:59;7.70;;;2.70;;
823;SDS011;373;49.342;8.146;2023-02-01T14:08:41;7.93;;;2.95;;
823;SDS011;373;49.342;8.146;2023-02-01T14:23:20;11.38;;;2.83;;
823;SDS011;373;49.342;8.146;2023-02-01T14:26:03;5.80;;;2.13;;
823;SDS011;373;49.342;8.146;2023-02-01T14:28:43;5.95;;;2.15;;
823;SDS011;373;49.342;8.146;2023-02-01T14:31:14;8.15;;;2.88;;
823;SDS011;373;49.342;8.146;2023-02-01T14:34:01;10.40;;;3.03;;
823;SDS011;373;49.342;8.146;2023-02-01T14:36:38;8.88;;;3.00;;
823;SDS011;373;49.342;8.146;2023-02-01T14:39:23;6.72;;;2.75;;
823;SDS011;373;49.342;8.146;2023-02-01T14:42:14;8.93;;;2.30;;
823;SDS011;373;49.342;8.146;2023-02-01T14:44:47;7.60;;;2.75;;
823;SDS011;373;49.342;8.146;2023-02-01T14:50:00;5.97;;;2.88;;
823;SDS011;373;49.342;8.146;2023-02-01T14:52:45;5.85;;;2.10;;
823;SDS011;373;49.342;8.146;2023-02-01T14:55:17;12.95;;;3.72;;
823;SDS011;373;49.342;8.146;2023-02-01T14:57:48;10.48;;;4.35;;
823;SDS011;373;49.342;8.146;2023-02-01T15:00:21;12.18;;;3.25;;
823;SDS011;373;49.342;8.146;2023-02-01T15:02:51;7.47;;;2.55;;
823;SDS011;373;49.342;8.146;2023-02-01T15:05:23;5.30;;;2.10;;
823;SDS011;373;49.342;8.146;2023-02-01T15:08:15;9.52;;;3.40;;
823;SDS011;373;49.342;8.146;2023-02-01T15:10:47;10.55;;;3.47;;
823;SDS011;373;49.342;8.146;2023-02-01T15:13:20;10.55;;;2.80;;
823;SDS011;373;49.342;8.146;2023-02-01T15:18:36;5.13;;;2.13;;
823;SDS011;373;49.342;8.146;2023-02-01T15:21:04;6.82;;;2.10;;
823;SDS011;373;49.342;8.146;2023-02-01T15:23:32;9.15;;;2.67;;
823;SDS011;373;49.342;8.146;2023-02-01T15:26:01;11.30;;;2.33;;
823;SDS011;373;49.342;8.146;2023-02-01T15:28:28;5.55;;;2.53;;
823;SDS011;373;49.342;8.146;2023-02-01T15:30:56;7.20;;;3.00;;
823;SDS011;373;49.342;8.146;2023-02-01T15:33:25;7.68;;;2.25;;
823;SDS011;373;49.342;8.146;2023-02-01T15:35:53;9.35;;;2.90;;
823;SDS011;373;49.342;8.146;2023-02-01T15:38:30;6.82;;;2.38;;
823;SDS011;373;49.342;8.146;2023-02-01T15:41:02;10.05;;;3.35;;
823;SDS011;373;49.342;8.146;2023-02-01T15:43:33;7.80;;;2.45;;
823;SDS011;373;49.342;8.146;2023-02-01T15:46:03;9.27;;;2.90;;
823;SDS011;373;49.342;8.146;2023-02-01T15:48:36;8.52;;;2.58;;
823;SDS011;373;49.342;8.146;2023-02-01T15:51:05;7.25;;;2.35;;
823;SDS011;373;49.342;8.146;2023-02-01T15:53:38;9.48;;;2.33;;
823;SDS011;373;49.342;8.146;2023-02-01T15:56:11;12.52;;;3.03;;
823;SDS011;373;49.342;8.146;2023-02-01T15:58:41;10.02;;;3.25;;
823;SDS011;373;49.342;8.146;2023-02-01T16:01:11;7.25;;;2.30;;
823;SDS011;373;49.342;8.146;2023-02-01T16:03:39;8.15;;;3.00;;
823;SDS011;373;49.342;8.146;2023-02-01T16:06:08;7.10;;;2.92;;
823;SDS011;373;49.342;8.146;2023-02-01T16:08:37;8.65;;;3.30;;
823;SDS011;373;49.342;8.146;2023-02-01T16:11:22;6.85;;;2.97;;
823;SDS011;373;49.342;8.146;2023-02-01T16:13:53;10.25;;;3.50;;
823;SDS011;373;49.342;8.146;2023-02-01T16:16:20;9.98;;;3.75;;
823;SDS011;373;49.342;8.146;2023-02-01T16:18:47;9.27;;;2.58;;
823;SDS011;373;49.342;8.146;2023-02-01T16:21:14;7.22;;;2.38;;
823;SDS011;373;49.342;8.146;2023-02-01T16:23:41;11.07;;;3.10;;
823;SDS011;373;49.342;8.146;2023-02-01T16:26:08;6.53;;;2.83;;
823;SDS011;373;49.342;8.146;2023-02-01T16:28:37;8.32;;;3.65;;
823;SDS011;373;49.342;8.146;2023-02-01T16:31:05;7.28;;;2.83;;
823;SDS011;373;49.342;8.146;2023-02-01T16:33:39;9.23;;;2.88;;
823;SDS011;373;49.342;8.146;2023-02-01T16:36:07;8.27;;;2.45;;
823;SDS011;373;49.342;8.146;2023-02-01T16:38:35;10.07;;;2.92;;
823;SDS011;373;49.342;8.146;2023-02-01T16:41:05;9.07;;;3.30;;
823;SDS011;373;49.342;8.146;2023-02-01T16:43:34;10.40;;;2.95;;
823;SDS011;373;49.342;8.146;2023-02-01T16:48:39;6.65;;;2.97;;
823;SDS011;373;49.342;8.146;2023-02-01T16:51:12;8.00;;;2.97;;
823;SDS011;373;49.342;8.146;2023-02-01T16:53:42;6.82;;;2.47;;
823;SDS011;373;49.342;8.146;2023-02-01T16:56:13;9.60;;;3.33;;
823;SDS011;373;49.342;8.146;2023-02-01T16:58:41;7.38;;;2.42;;
823;SDS011;373;49.342;8.146;2023-02-01T17:01:11;6.63;;;2.70;;